TAF KCON
AMD KCON 280910Z 2809/2906 28006KT P6SM FEW250 FM282200 00000KT P6SM BKN040 FM290400 00000KT 3SM -SN BR OVC015=
METAR KCON
WC KCON
WS KCON
WV KCON